createdAt,value
2024-05-09T00:00:55.830Z,60.63
2024-05-09T00:06:00.689Z,60.80
2024-05-09T00:11:08.295Z,60.18
2024-05-09T00:16:13.037Z,61.02
2024-05-09T00:21:17.738Z,61.74
2024-05-09T00:26:25.140Z,61.87
2024-05-09T00:31:29.979Z,61.93
2024-05-09T00:36:34.723Z,61.93
2024-05-09T00:41:42.067Z,62.03
2024-05-09T00:46:47.074Z,63.52
2024-05-09T00:51:52.792Z,63.27
2024-05-09T00:57:00.214Z,63.37
2024-05-09T01:02:05.065Z,64.51
2024-05-09T01:07:10.148Z,64.95
2024-05-09T01:12:17.532Z,64.65
2024-05-09T01:17:22.562Z,65.07
2024-05-09T01:22:31.139Z,64.55
2024-05-09T01:27:38.458Z,64.13
2024-05-09T01:32:43.620Z,66.12
2024-05-09T01:37:48.618Z,65.53
2024-05-09T01:42:55.872Z,65.72
2024-05-09T01:48:01.018Z,65.99
2024-05-09T01:53:06.205Z,66.44
2024-05-09T01:58:13.589Z,65.66
2024-05-09T02:03:18.685Z,66.74
2024-05-09T02:08:24.012Z,65.84
2024-05-09T02:13:31.308Z,66.19
2024-05-09T02:18:35.985Z,66.77
2024-05-09T02:23:40.656Z,67.50
2024-05-09T02:28:48.085Z,67.73
2024-05-09T02:33:52.931Z,67.10
2024-05-09T02:38:57.731Z,67.69
2024-05-09T02:44:05.106Z,67.39
2024-05-09T02:49:09.968Z,68.36
2024-05-09T02:54:14.693Z,67.67
2024-05-09T02:59:22.126Z,67.18
2024-05-09T03:04:26.940Z,68.37
2024-05-09T03:09:31.649Z,68.54
2024-05-09T03:14:38.988Z,68.14
2024-05-09T03:19:43.657Z,68.34
2024-05-09T03:24:48.301Z,68.23
2024-05-09T03:29:55.643Z,67.86
2024-05-09T03:35:00.543Z,67.29
2024-05-09T03:40:09.277Z,68.21
2024-05-09T03:45:19.630Z,68.46
2024-05-09T03:50:30.165Z,67.31
2024-05-09T03:55:39.080Z,67.81
2024-05-09T04:00:46.463Z,68.50
2024-05-09T04:05:51.177Z,68.43
2024-05-09T04:10:56.108Z,67.99
2024-05-09T04:16:03.429Z,67.80
2024-05-09T04:21:09.138Z,64.54
2024-05-09T04:26:14.101Z,61.27
2024-05-09T04:31:21.468Z,58.36
2024-05-09T04:36:26.149Z,55.20
2024-05-09T04:41:30.905Z,54.22
2024-05-09T04:46:39.678Z,52.16
2024-05-09T04:51:44.534Z,53.18
2024-05-09T04:56:49.196Z,53.77
2024-05-09T05:01:56.687Z,51.81
2024-05-09T05:07:02.809Z,51.29
2024-05-09T05:12:28.424Z,51.29
2024-05-09T05:17:36.026Z,50.91
2024-05-09T05:22:43.156Z,51.01
2024-05-09T05:27:47.812Z,50.57
2024-05-09T05:32:55.242Z,51.21
2024-05-09T05:38:00.002Z,50.40
2024-05-09T05:43:04.722Z,50.87
2024-05-09T05:48:12.590Z,51.61
2024-05-09T05:53:17.412Z,50.35
2024-05-09T05:58:22.581Z,50.39
2024-05-09T06:03:30.448Z,49.69
2024-05-09T06:08:35.227Z,48.26
2024-05-09T06:13:39.988Z,48.48
2024-05-09T06:18:47.524Z,46.97
2024-05-09T06:23:53.448Z,45.97
2024-05-09T06:28:58.796Z,45.28
2024-05-09T06:34:06.196Z,45.02
2024-05-09T06:39:11.105Z,44.07
2024-05-09T06:44:15.906Z,45.97
2024-05-09T06:49:23.355Z,44.11
2024-05-09T06:54:29.131Z,45.13
2024-05-09T06:59:33.899Z,45.20
2024-05-09T07:04:41.235Z,42.93
2024-05-09T07:09:46.362Z,42.74
2024-05-09T07:14:51.054Z,41.55
2024-05-09T07:19:58.503Z,40.76
2024-05-09T07:25:03.172Z,41.29
2024-05-09T07:30:11.506Z,40.33
2024-05-09T07:35:18.980Z,42.41
2024-05-09T07:40:32.670Z,43.46
2024-05-09T07:45:50.460Z,39.03
2024-05-09T07:53:07.620Z,36.39
2024-05-09T07:56:26.536Z,33.57
2024-05-09T08:01:31.717Z,35.67
2024-05-09T08:06:39.181Z,32.87
2024-05-09T08:11:44.896Z,33.39
2024-05-09T08:16:49.634Z,33.21
2024-05-09T08:21:56.993Z,33.96
2024-05-09T08:27:01.683Z,35.15
2024-05-09T08:32:07.989Z,34.48
2024-05-09T08:37:21.497Z,33.90
2024-05-09T08:42:31.862Z,32.25
2024-05-09T08:47:36.726Z,31.62
2024-05-09T08:52:44.193Z,29.61
2024-05-09T08:57:49.461Z,30.77
2024-05-09T09:02:55.338Z,33.94
2024-05-09T09:08:02.641Z,34.47
2024-05-09T09:13:09.785Z,32.91
2024-05-09T09:18:17.826Z,34.32
2024-05-09T09:23:27.378Z,31.65
2024-05-09T09:28:32.295Z,32.17
2024-05-09T09:33:37.801Z,32.83
2024-05-09T09:38:46.490Z,29.85
2024-05-09T09:43:51.565Z,32.92
2024-05-09T09:48:56.442Z,33.65
2024-05-09T09:54:06.554Z,33.63
2024-05-09T09:59:12.324Z,33.41
2024-05-09T10:04:19.028Z,36.71
2024-05-09T10:09:26.841Z,36.83
2024-05-09T10:14:34.600Z,37.10
2024-05-09T10:19:39.357Z,36.13
2024-05-09T10:24:54.639Z,34.82
2024-05-09T10:30:01.264Z,32.91
2024-05-09T10:35:11.666Z,35.27
2024-05-09T10:40:26.545Z,32.58
2024-05-09T10:45:38.182Z,32.83
2024-05-09T10:50:43.874Z,34.51
2024-05-09T10:56:01.479Z,36.87
2024-05-09T11:01:07.309Z,36.95
2024-05-09T11:06:13.633Z,34.19
2024-05-09T11:11:21.227Z,32.54
2024-05-09T11:16:26.135Z,32.08
2024-05-09T11:21:31.075Z,31.85
2024-05-09T11:26:38.541Z,31.99
2024-05-09T11:31:48.752Z,31.29
2024-05-09T11:36:53.764Z,31.97
2024-05-09T11:42:01.162Z,32.28
2024-05-09T11:47:07.159Z,31.01
2024-05-09T11:52:12.028Z,32.72
2024-05-09T11:57:19.399Z,31.03
2024-05-09T12:02:24.228Z,32.85
2024-05-09T12:07:29.236Z,31.96
2024-05-09T12:12:37.529Z,32.69
2024-05-09T12:17:42.341Z,32.10
2024-05-09T12:22:47.613Z,33.99
2024-05-09T12:27:55.052Z,33.41
2024-05-09T12:32:59.904Z,31.00
2024-05-09T12:38:05.040Z,32.48
2024-05-09T12:43:12.610Z,30.59
2024-05-09T12:48:17.712Z,31.51
2024-05-09T12:53:22.501Z,30.23
2024-05-09T12:58:29.966Z,32.30
2024-05-09T13:03:34.895Z,32.81
2024-05-09T13:08:39.745Z,33.02
2024-05-09T13:13:47.438Z,31.64
2024-05-09T13:18:52.309Z,31.89
2024-05-09T13:23:58.333Z,31.69
2024-05-09T13:29:06.578Z,32.22
2024-05-09T13:34:11.372Z,33.73
2024-05-09T13:39:16.102Z,34.62
2024-05-09T13:44:23.364Z,31.61
2024-05-09T13:49:28.171Z,33.54
2024-05-09T13:54:32.961Z,33.84
2024-05-09T13:59:40.396Z,32.28
2024-05-09T14:04:45.323Z,32.59
2024-05-09T14:09:50.149Z,31.30
2024-05-09T14:14:57.489Z,30.65
2024-05-09T14:20:02.392Z,31.86
2024-05-09T14:25:09.464Z,31.45
2024-05-09T14:30:22.968Z,32.71
2024-05-09T14:35:35.330Z,33.32
2024-05-09T14:40:43.589Z,31.62
2024-05-09T14:45:51.648Z,32.50
2024-05-09T14:50:56.419Z,31.75
2024-05-09T14:56:01.161Z,31.32
2024-05-09T15:01:08.529Z,31.71
2024-05-09T15:06:13.302Z,31.79
2024-05-09T15:11:18.033Z,33.14
2024-05-09T15:16:25.535Z,32.65
2024-05-09T15:21:30.345Z,34.16
2024-05-09T15:26:34.994Z,33.89
2024-05-09T15:31:42.411Z,32.87
2024-05-09T15:36:51.050Z,32.90
2024-05-09T15:41:56.462Z,33.47
2024-05-09T15:47:03.867Z,33.28
2024-05-09T15:52:08.897Z,32.55
2024-05-09T15:57:14.156Z,33.14
2024-05-09T16:02:21.588Z,32.91
2024-05-09T16:07:26.599Z,33.70
2024-05-09T16:12:31.310Z,32.56
2024-05-09T16:17:38.777Z,32.59
2024-05-09T16:22:44.058Z,32.56
2024-05-09T16:27:48.895Z,33.80
2024-05-09T16:32:56.356Z,33.73
2024-05-09T16:38:01.113Z,33.70
2024-05-09T16:43:06.646Z,33.61
2024-05-09T16:48:14.972Z,34.50
2024-05-09T16:53:21.439Z,35.02
2024-05-09T16:58:26.612Z,34.39
2024-05-09T17:03:34.096Z,35.36
2024-05-09T17:08:40.476Z,36.46
2024-05-09T17:13:48.177Z,35.84
2024-05-09T17:18:55.974Z,36.33
2024-05-09T17:24:00.663Z,35.45
2024-05-09T17:29:07.281Z,37.23
2024-05-09T17:34:16.067Z,37.68
2024-05-09T17:39:20.981Z,37.82
2024-05-09T17:44:27.044Z,37.96
2024-05-09T17:49:34.543Z,40.21
2024-05-09T17:54:39.275Z,40.53
2024-05-09T17:59:44.055Z,41.06
2024-05-09T18:04:51.496Z,41.29
2024-05-09T18:09:56.270Z,41.67
2024-05-09T18:15:01.958Z,42.26
2024-05-09T18:20:17.216Z,43.37
2024-05-09T18:25:24.644Z,44.17
2024-05-09T18:30:34.734Z,44.75
2024-05-09T18:35:45.359Z,44.86
2024-05-09T18:40:50.435Z,45.70
2024-05-09T18:45:55.256Z,46.26
2024-05-09T18:51:03.464Z,46.14
2024-05-09T18:56:09.526Z,46.27
2024-05-09T19:01:14.423Z,46.99
2024-05-09T19:06:24.699Z,47.04
2024-05-09T19:11:29.603Z,47.57
2024-05-09T19:16:34.415Z,48.12
2024-05-09T19:21:42.997Z,49.17
2024-05-09T19:26:47.861Z,49.23
2024-05-09T19:31:52.746Z,49.42
2024-05-09T19:37:01.453Z,50.09
2024-05-09T19:42:06.672Z,50.24
2024-05-09T19:47:11.458Z,50.99
2024-05-09T19:52:18.811Z,51.28
2024-05-09T19:57:23.590Z,51.73
2024-05-09T20:02:28.508Z,52.13
2024-05-09T20:07:37.584Z,52.83
2024-05-09T20:12:42.302Z,52.73
2024-05-09T20:17:47.377Z,53.23
2024-05-09T20:22:54.746Z,53.50
2024-05-09T20:27:59.569Z,53.53
2024-05-09T20:33:07.064Z,54.35
2024-05-09T20:38:15.804Z,54.73
2024-05-09T20:43:20.872Z,54.70
2024-05-09T20:48:26.135Z,54.99
2024-05-09T20:53:33.507Z,55.75
2024-05-09T20:58:38.232Z,56.36
2024-05-09T21:03:43.945Z,56.21
2024-05-09T21:08:51.335Z,56.51
2024-05-09T21:13:56.207Z,56.88
2024-05-09T21:19:01.001Z,56.93
2024-05-09T21:24:08.791Z,57.35
2024-05-09T21:29:13.583Z,57.98
2024-05-09T21:34:18.383Z,57.94
2024-05-09T21:39:26.006Z,59.60
2024-05-09T21:44:30.934Z,59.16
2024-05-09T21:49:35.690Z,59.54
2024-05-09T21:54:43.099Z,59.53
2024-05-09T21:59:47.740Z,60.08
2024-05-09T22:04:52.497Z,59.73
2024-05-09T22:10:00.224Z,60.74
2024-05-09T22:15:05.039Z,60.72
2024-05-09T22:20:18.088Z,61.17
2024-05-09T22:25:31.044Z,61.12
2024-05-09T22:30:39.596Z,61.29
2024-05-09T22:35:45.378Z,61.37
2024-05-09T22:40:52.779Z,61.71
2024-05-09T22:45:57.420Z,61.67
2024-05-09T22:51:02.099Z,62.18
2024-05-09T22:56:10.205Z,63.11
2024-05-09T23:01:17.516Z,62.57
2024-05-09T23:06:22.464Z,63.05
2024-05-09T23:11:29.746Z,63.55
2024-05-09T23:16:34.487Z,63.27
2024-05-09T23:21:41.252Z,64.13
2024-05-09T23:26:48.528Z,63.68
2024-05-09T23:31:53.423Z,64.75
2024-05-09T23:36:58.113Z,64.15
2024-05-09T23:42:05.741Z,64.47
2024-05-09T23:47:11.012Z,65.40
2024-05-09T23:52:15.980Z,66.41
2024-05-09T23:57:23.850Z,65.22
